Brookfield Center, Connecticut
Current Conditions -  °F | °C
As of 7:53 AM on Monday 22 Dec 2014 (Local Time) from KDXR Reporting Station
Haze Haze  
Wind Chill: 29°   Ceiling: 800
Heat Index: 34°   Visibility: 5mi
Dew Point: 29°   Wind: 6mph
Humidity: 82%   Direction: 60°ENE
Pressure: 30.33"   Gusts: NA
Location:  41.4668°N, 73.3928°W
Report Text: KDXR 221253Z 06005KT 5SM HZ BKN008 OVC018 01/M02 A3033 RMK AO2 UPB13E17RAB17E26 CIG 005V011 SLP274 P0000 T00111017
Loading
Personal Weather Stations






























Interactive Weather Map New forecast layout! Learn more

10-Day Weather Forecast

Advertisements
Track Severe Weather on mobile